Time;durP1;ratioP1;P1;durP2;ratioP2;P2;SDS_P1;SDS_P2;PMS_P1;PMS_P2;Temp;Humidity;BMP_temperature;BMP_pressure;BME280_temperature;BME280_humidity;BME280_pressure;Samples;Min_cycle;Max_cycle;Signal;HPM_P1;HPM_P2
2022/08/01 00:01:39;;;;;;;1.23;0.88;;;;;;;;;;8414177;28;20796;-72
2022/08/01 00:05:41;;;;;;;1.08;0.95;;;;;;;;;;8414833;28;20047;-72
2022/08/01 00:09:41;;;;;;;2.05;1.30;;;;;;;;;;8414668;28;20031;-72
2022/08/01 00:13:42;;;;;;;1.58;0.90;;;;;;;;;;8413178;28;20405;-71
2022/08/01 00:17:42;;;;;;;4.20;1.08;;;;;;;;;;8413062;28;20807;-70
2022/08/01 00:21:42;;;;;;;0.80;0.80;;;;;;;;;;8413505;28;20020;-70
2022/08/01 00:25:43;;;;;;;1.35;0.95;;;;;;;;;;8414515;28;20058;-71
2022/08/01 00:29:43;;;;;;;1.05;0.95;;;;;;;;;;8414600;28;20097;-71
2022/08/01 00:33:43;;;;;;;1.58;0.80;;;;;;;;;;8413017;28;20074;-70
2022/08/01 00:37:43;;;;;;;0.98;0.85;;;;;;;;;;8415126;28;20059;-71
2022/08/01 00:41:44;;;;;;;0.73;0.73;;;;;;;;;;8420136;28;20022;-71
2022/08/01 00:45:44;;;;;;;1.02;0.90;;;;;;;;;;8419608;28;20503;-71
2022/08/01 00:49:44;;;;;;;1.08;0.80;;;;;;;;;;8419247;28;20472;-71
2022/08/01 00:53:44;;;;;;;1.15;0.90;;;;;;;;;;8419705;27;20031;-71
2022/08/01 00:57:45;;;;;;;0.90;0.90;;;;;;;;;;8419724;28;20028;-72
2022/08/01 01:01:45;;;;;;;1.75;0.98;;;;;;;;;;8419194;28;20043;-71
2022/08/01 01:05:52;;;;;;;3.40;0.90;;;;;;;;;;8419515;28;20031;-71
2022/08/01 01:10:02;;;;;;;1.40;0.80;;;;;;;;;;8418150;28;20118;-71
2022/08/01 01:14:04;;;;;;;1.27;1.00;;;;;;;;;;8418002;28;20135;-71
2022/08/01 01:18:12;;;;;;;1.90;0.80;;;;;;;;;;8416115;28;20053;-71
2022/08/01 01:22:42;;;;;;;2.40;1.20;;;;;;;;;;8417340;28;20055;-71
2022/08/01 01:26:49;;;;;;;1.20;0.90;;;;;;;;;;8391715;28;20074;-71
2022/08/01 01:30:51;;;;;;;1.45;0.90;;;;;;;;;;8417538;27;20051;-71
2022/08/01 01:34:53;;;;;;;1.33;0.80;;;;;;;;;;8420452;28;20032;-71
2022/08/01 01:38:54;;;;;;;0.88;0.80;;;;;;;;;;8420099;28;20115;-71
2022/08/01 01:42:55;;;;;;;1.63;0.90;;;;;;;;;;8417102;28;20468;-71
2022/08/01 01:46:56;;;;;;;1.90;0.80;;;;;;;;;;8391153;28;20039;-72
2022/08/01 01:50:56;;;;;;;0.90;0.90;;;;;;;;;;8417517;28;20024;-71
2022/08/01 01:54:58;;;;;;;1.25;0.80;;;;;;;;;;8417740;28;20023;-71
2022/08/01 01:59:00;;;;;;;2.53;0.82;;;;;;;;;;8419150;28;20023;-71
2022/08/01 02:03:02;;;;;;;1.25;0.77;;;;;;;;;;8417592;28;20074;-71
2022/08/01 02:07:03;;;;;;;2.30;0.90;;;;;;;;;;8417512;28;20016;-72
2022/08/01 02:11:19;;;;;;;0.82;0.73;;;;;;;;;;8418038;28;20034;-71
2022/08/01 02:15:19;;;;;;;1.52;0.90;;;;;;;;;;8417609;28;20028;-71
2022/08/01 02:19:20;;;;;;;0.85;0.80;;;;;;;;;;8417879;28;20084;-71
2022/08/01 02:23:23;;;;;;;0.80;0.80;;;;;;;;;;8417531;28;20088;-71
2022/08/01 02:27:43;;;;;;;1.73;0.80;;;;;;;;;;8418119;28;20108;-71
2022/08/01 02:31:46;;;;;;;0.95;0.75;;;;;;;;;;8417016;28;20036;-71
2022/08/01 02:35:49;;;;;;;0.95;0.82;;;;;;;;;;8417986;28;20025;-71
2022/08/01 02:39:52;;;;;;;1.38;0.80;;;;;;;;;;8417913;28;20054;-71
2022/08/01 02:43:56;;;;;;;1.48;0.80;;;;;;;;;;8415770;27;20027;-71
2022/08/01 02:48:01;;;;;;;0.80;0.80;;;;;;;;;;8416178;28;20031;-71
2022/08/01 02:52:03;;;;;;;0.77;0.77;;;;;;;;;;8417058;28;20577;-71
2022/08/01 02:56:05;;;;;;;1.73;0.90;;;;;;;;;;8416567;28;20028;-71
2022/08/01 03:00:06;;;;;;;1.20;0.80;;;;;;;;;;8415099;28;20047;-72
2022/08/01 03:04:06;;;;;;;0.98;0.80;;;;;;;;;;8416904;28;20028;-72
2022/08/01 03:08:08;;;;;;;0.80;0.80;;;;;;;;;;8416538;28;20089;-71
2022/08/01 03:12:11;;;;;;;1.38;0.90;;;;;;;;;;8414334;28;20043;-71
2022/08/01 03:16:11;;;;;;;2.33;1.00;;;;;;;;;;8415888;28;20085;-71
2022/08/01 03:20:13;;;;;;;1.88;0.98;;;;;;;;;;8413969;28;20035;-71
2022/08/01 03:24:14;;;;;;;2.55;0.98;;;;;;;;;;8416572;28;20011;-72
2022/08/01 03:28:15;;;;;;;2.55;0.95;;;;;;;;;;8415361;28;20057;-71
2022/08/01 03:32:16;;;;;;;2.45;1.00;;;;;;;;;;8412994;28;20126;-71
2022/08/01 03:36:18;;;;;;;2.65;0.95;;;;;;;;;;8415826;28;20063;-71
2022/08/01 03:40:23;;;;;;;1.02;0.80;;;;;;;;;;8415148;28;20019;-71
2022/08/01 03:44:25;;;;;;;2.00;0.90;;;;;;;;;;8414756;28;20027;-71
2022/08/01 03:48:28;;;;;;;0.98;0.80;;;;;;;;;;8415103;28;21104;-71
2022/08/01 03:52:29;;;;;;;0.90;0.90;;;;;;;;;;8416082;28;20051;-71
2022/08/01 03:56:31;;;;;;;1.10;0.95;;;;;;;;;;8415507;28;20464;-71
2022/08/01 04:00:32;;;;;;;0.80;0.80;;;;;;;;;;8393356;28;20046;-71
2022/08/01 04:04:33;;;;;;;1.85;1.10;;;;;;;;;;8414668;28;20028;-71
2022/08/01 04:08:36;;;;;;;1.08;0.90;;;;;;;;;;8416281;28;20618;-71
2022/08/01 04:12:37;;;;;;;1.10;1.00;;;;;;;;;;8414934;28;20023;-71
2022/08/01 04:16:37;;;;;;;2.25;1.02;;;;;;;;;;8421357;28;20034;-71
2022/08/01 04:20:37;;;;;;;2.03;1.02;;;;;;;;;;8422199;27;20037;-71
2022/08/01 04:24:38;;;;;;;1.55;1.00;;;;;;;;;;8423330;28;20042;-71
2022/08/01 04:28:39;;;;;;;2.65;1.10;;;;;;;;;;8420965;28;20032;-71
2022/08/01 04:32:42;;;;;;;1.67;1.10;;;;;;;;;;8421195;27;20047;-71
2022/08/01 04:36:43;;;;;;;6.07;1.50;;;;;;;;;;8422527;28;20724;-71
2022/08/01 04:40:45;;;;;;;3.17;1.13;;;;;;;;;;8421395;28;20748;-71
2022/08/01 04:44:45;;;;;;;1.45;1.00;;;;;;;;;;8421418;28;20672;-71
2022/08/01 04:48:45;;;;;;;2.35;1.10;;;;;;;;;;8420699;28;20048;-71
2022/08/01 04:52:46;;;;;;;2.13;1.00;;;;;;;;;;8422037;28;20512;-71
2022/08/01 04:56:46;;;;;;;2.53;0.90;;;;;;;;;;8422031;27;20502;-71
2022/08/01 05:00:46;;;;;;;1.52;1.00;;;;;;;;;;8418813;28;20515;-71
2022/08/01 05:04:46;;;;;;;5.63;0.90;;;;;;;;;;8420782;28;20023;-71
2022/08/01 05:08:46;;;;;;;3.50;1.10;;;;;;;;;;8420455;28;20020;-71
2022/08/01 05:12:47;;;;;;;3.28;0.90;;;;;;;;;;8419342;28;20035;-71
2022/08/01 05:16:47;;;;;;;7.03;1.00;;;;;;;;;;8420286;28;20028;-71
2022/08/01 05:20:47;;;;;;;1.35;0.77;;;;;;;;;;8419063;28;20130;-71
2022/08/01 05:24:47;;;;;;;1.92;0.82;;;;;;;;;;8418646;28;20051;-71
2022/08/01 05:28:47;;;;;;;3.40;0.90;;;;;;;;;;8418767;28;20126;-71
2022/08/01 05:32:48;;;;;;;1.10;0.80;;;;;;;;;;8416956;28;20039;-71
2022/08/01 05:36:48;;;;;;;3.80;0.80;;;;;;;;;;8419406;28;20024;-72
2022/08/01 05:40:48;;;;;;;1.43;0.80;;;;;;;;;;8417813;28;20035;-71
2022/08/01 05:44:49;;;;;;;1.77;0.73;;;;;;;;;;8417146;28;20138;-71
2022/08/01 05:48:50;;;;;;;0.70;0.70;;;;;;;;;;8418798;28;20459;-71
2022/08/01 05:52:50;;;;;;;1.58;0.70;;;;;;;;;;8418075;28;20055;-70
2022/08/01 05:56:50;;;;;;;1.38;0.80;;;;;;;;;;8418772;28;20024;-71
2022/08/01 06:00:50;;;;;;;1.38;0.70;;;;;;;;;;8418380;28;20035;-71
2022/08/01 06:04:51;;;;;;;1.73;0.80;;;;;;;;;;8418106;28;20738;-71
2022/08/01 06:08:51;;;;;;;0.70;0.70;;;;;;;;;;8418368;28;20034;-71
2022/08/01 06:12:51;;;;;;;4.00;0.80;;;;;;;;;;8416834;28;20743;-71
2022/08/01 06:16:52;;;;;;;0.77;0.70;;;;;;;;;;8418140;27;20035;-71
2022/08/01 06:20:52;;;;;;;1.65;0.75;;;;;;;;;;8417326;28;20028;-71
2022/08/01 06:24:52;;;;;;;0.70;0.70;;;;;;;;;;8418294;28;20019;-70
2022/08/01 06:28:52;;;;;;;0.90;0.90;;;;;;;;;;8417174;27;20035;-71
2022/08/01 06:32:55;;;;;;;0.98;0.77;;;;;;;;;;8416692;28;20389;-71
2022/08/01 06:36:55;;;;;;;0.80;0.80;;;;;;;;;;8417351;28;20027;-71
2022/08/01 06:40:55;;;;;;;2.60;0.90;;;;;;;;;;8416043;28;20114;-71
2022/08/01 06:44:56;;;;;;;0.93;0.90;;;;;;;;;;8417809;28;20088;-71
2022/08/01 06:48:56;;;;;;;1.02;0.80;;;;;;;;;;8416679;28;20063;-71
2022/08/01 06:52:56;;;;;;;0.70;0.70;;;;;;;;;;8416966;28;20038;-70
2022/08/01 06:56:56;;;;;;;0.80;0.80;;;;;;;;;;8417928;28;21907;-71
2022/08/01 07:00:56;;;;;;;0.88;0.82;;;;;;;;;;8415811;28;21297;-71
2022/08/01 07:05:00;;;;;;;1.53;0.87;;;;;;;;;;8417264;28;20781;-71
2022/08/01 07:09:01;;;;;;;1.55;0.82;;;;;;;;;;8418462;27;20058;-71
2022/08/01 07:13:01;;;;;;;1.05;0.80;;;;;;;;;;8416457;28;20034;-71
2022/08/01 07:17:02;;;;;;;2.05;0.93;;;;;;;;;;8415863;28;20031;-71
2022/08/01 07:21:02;;;;;;;0.80;0.80;;;;;;;;;;8415083;28;20138;-71
2022/08/01 07:25:03;;;;;;;1.35;0.80;;;;;;;;;;8414767;28;20034;-71
2022/08/01 07:29:03;;;;;;;1.40;0.80;;;;;;;;;;8414388;28;20031;-72
2022/08/01 07:33:04;;;;;;;0.82;0.80;;;;;;;;;;8393745;28;20035;-71
2022/08/01 07:37:04;;;;;;;3.20;0.82;;;;;;;;;;8414487;28;20019;-71
2022/08/01 07:41:04;;;;;;;1.55;0.90;;;;;;;;;;8415417;28;20073;-71
2022/08/01 07:45:04;;;;;;;0.98;0.80;;;;;;;;;;8414078;28;20023;-72
2022/08/01 07:49:04;;;;;;;0.70;0.70;;;;;;;;;;8413306;28;20506;-72
2022/08/01 07:53:05;;;;;;;0.80;0.80;;;;;;;;;;8414620;28;20446;-71
2022/08/01 07:57:05;;;;;;;0.93;0.80;;;;;;;;;;8414453;28;20031;-72
2022/08/01 08:01:06;;;;;;;1.13;0.70;;;;;;;;;;8414212;28;20120;-71
2022/08/01 08:05:07;;;;;;;0.70;0.70;;;;;;;;;;8415270;28;20028;-72
2022/08/01 08:09:07;;;;;;;0.82;0.82;;;;;;;;;;8413313;28;20019;-72
2022/08/01 08:13:07;;;;;;;1.83;0.68;;;;;;;;;;8414297;28;20028;-71
2022/08/01 08:17:07;;;;;;;1.10;0.70;;;;;;;;;;8415138;28;20143;-72
2022/08/01 08:21:08;;;;;;;0.60;0.60;;;;;;;;;;8413411;28;20059;-72
2022/08/01 08:25:08;;;;;;;0.73;0.70;;;;;;;;;;8415842;28;20059;-72
2022/08/01 08:29:08;;;;;;;1.23;0.77;;;;;;;;;;8412944;28;21143;-72
2022/08/01 08:33:08;;;;;;;0.95;0.75;;;;;;;;;;8412846;28;20273;-73
2022/08/01 08:37:09;;;;;;;0.77;0.70;;;;;;;;;;8414605;28;20131;-72
2022/08/01 08:41:09;;;;;;;2.25;0.80;;;;;;;;;;8413555;28;20034;-72
2022/08/01 08:45:09;;;;;;;2.28;0.77;;;;;;;;;;8415355;28;20674;-72
2022/08/01 08:49:10;;;;;;;0.82;0.82;;;;;;;;;;8413645;28;20155;-72
2022/08/01 08:53:13;;;;;;;0.75;0.75;;;;;;;;;;8413676;28;20032;-71
2022/08/01 08:57:14;;;;;;;0.80;0.80;;;;;;;;;;8413595;28;20035;-71
2022/08/01 09:01:14;;;;;;;0.70;0.70;;;;;;;;;;8416140;28;20096;-71
2022/08/01 09:05:14;;;;;;;0.80;0.80;;;;;;;;;;8420235;28;20112;-72
2022/08/01 09:09:15;;;;;;;1.10;0.70;;;;;;;;;;8420164;28;20047;-72
2022/08/01 09:13:15;;;;;;;0.70;0.70;;;;;;;;;;8418374;28;20030;-72
2022/08/01 09:17:16;;;;;;;1.73;0.60;;;;;;;;;;8419626;28;20134;-72
2022/08/01 09:21:17;;;;;;;1.20;0.80;;;;;;;;;;8418654;28;20027;-72
2022/08/01 09:25:17;;;;;;;0.70;0.70;;;;;;;;;;8419008;28;20051;-71
2022/08/01 09:29:18;;;;;;;0.70;0.68;;;;;;;;;;8418339;28;20035;-72
2022/08/01 09:33:18;;;;;;;1.60;0.73;;;;;;;;;;8417449;27;20043;-72
2022/08/01 09:37:29;;;;;;;1.27;0.60;;;;;;;;;;8419328;27;20062;-72
2022/08/01 09:41:30;;;;;;;2.67;0.65;;;;;;;;;;8417568;28;20066;-72
2022/08/01 09:45:32;;;;;;;1.25;0.80;;;;;;;;;;8417040;28;20039;-72
2022/08/01 09:49:34;;;;;;;1.05;0.70;;;;;;;;;;8417707;28;20023;-72
2022/08/01 09:53:45;;;;;;;0.90;0.73;;;;;;;;;;8417657;28;20027;-72
2022/08/01 09:57:54;;;;;;;3.20;0.90;;;;;;;;;;8418004;28;20361;-71
2022/08/01 10:01:54;;;;;;;0.88;0.70;;;;;;;;;;8415766;28;20039;-72
2022/08/01 10:05:56;;;;;;;0.80;0.60;;;;;;;;;;8418272;28;20038;-72
2022/08/01 10:10:08;;;;;;;0.80;0.70;;;;;;;;;;8398554;28;20011;-71
2022/08/01 10:14:09;;;;;;;0.93;0.70;;;;;;;;;;8396773;28;20051;-72
2022/08/01 10:18:10;;;;;;;0.60;0.60;;;;;;;;;;8416467;28;20036;-71
2022/08/01 10:22:16;;;;;;;2.28;0.60;;;;;;;;;;8417480;28;20020;-71
2022/08/01 10:26:16;;;;;;;1.10;0.70;;;;;;;;;;8416330;28;20131;-72
2022/08/01 10:30:17;;;;;;;1.63;0.60;;;;;;;;;;8414889;27;20130;-72
2022/08/01 10:34:19;;;;;;;0.80;0.70;;;;;;;;;;8417545;28;20193;-72
2022/08/01 10:38:19;;;;;;;1.05;0.70;;;;;;;;;;8416174;28;20482;-72
2022/08/01 10:42:20;;;;;;;0.63;0.63;;;;;;;;;;8416162;28;20135;-71
2022/08/01 10:46:20;;;;;;;0.87;0.60;;;;;;;;;;8416355;28;20042;-72
2022/08/01 10:50:28;;;;;;;0.57;0.57;;;;;;;;;;8415076;28;20120;-74
2022/08/01 10:54:37;;;;;;;1.20;0.70;;;;;;;;;;8415621;28;20042;-72
2022/08/01 10:58:40;;;;;;;0.63;0.63;;;;;;;;;;8415917;28;20192;-71
2022/08/01 11:02:43;;;;;;;0.52;0.52;;;;;;;;;;8414796;28;20068;-72
2022/08/01 11:06:54;;;;;;;0.50;0.50;;;;;;;;;;8416819;27;21100;-72
2022/08/01 11:11:00;;;;;;;0.50;0.50;;;;;;;;;;8414931;28;20364;-72
2022/08/01 11:15:00;;;;;;;0.50;0.50;;;;;;;;;;8392779;28;20042;-72
2022/08/01 11:19:00;;;;;;;1.48;0.52;;;;;;;;;;8414444;28;20039;-72
2022/08/01 11:23:00;;;;;;;0.50;0.50;;;;;;;;;;8387523;28;20095;-72
2022/08/01 11:27:20;;;;;;;1.98;0.65;;;;;;;;;;8414235;28;20076;-72
2022/08/01 11:31:20;;;;;;;1.48;0.60;;;;;;;;;;8414613;28;20036;-72
2022/08/01 11:35:23;;;;;;;3.28;0.60;;;;;;;;;;8413600;28;20815;-72
2022/08/01 11:39:23;;;;;;;0.57;0.50;;;;;;;;;;8413768;28;20471;-72
2022/08/01 11:43:23;;;;;;;0.80;0.60;;;;;;;;;;8414203;28;20030;-72
2022/08/01 11:47:42;;;;;;;0.50;0.50;;;;;;;;;;8412843;28;20036;-72
2022/08/01 11:51:42;;;;;;;1.90;0.60;;;;;;;;;;8414739;28;20036;-72
2022/08/01 11:55:48;;;;;;;0.43;0.43;;;;;;;;;;8413838;28;20047;-72
2022/08/01 11:59:49;;;;;;;0.50;0.50;;;;;;;;;;8394038;28;20027;-72
2022/08/01 12:03:55;;;;;;;0.50;0.50;;;;;;;;;;8412986;28;20228;-72
2022/08/01 12:07:56;;;;;;;0.60;0.60;;;;;;;;;;8415550;28;20598;-72
2022/08/01 12:11:56;;;;;;;0.50;0.50;;;;;;;;;;8414299;28;20082;-71
2022/08/01 12:15:57;;;;;;;0.93;0.60;;;;;;;;;;8415231;28;20204;-71
2022/08/01 12:19:58;;;;;;;0.70;0.70;;;;;;;;;;8413925;28;20751;-71
2022/08/01 12:24:01;;;;;;;1.98;0.50;;;;;;;;;;8415744;28;20093;-71
2022/08/01 12:28:03;;;;;;;1.42;0.60;;;;;;;;;;8416533;28;20547;-71
2022/08/01 12:32:04;;;;;;;0.60;0.60;;;;;;;;;;8412902;28;20039;-72
2022/08/01 12:36:04;;;;;;;0.95;0.60;;;;;;;;;;8415496;28;20138;-72
2022/08/01 12:40:11;;;;;;;0.90;0.80;;;;;;;;;;8419880;27;20543;-72
2022/08/01 12:44:16;;;;;;;0.80;0.77;;;;;;;;;;8420063;27;20114;-71
2022/08/01 12:48:16;;;;;;;0.70;0.68;;;;;;;;;;8418225;28;20054;-72
2022/08/01 12:52:21;;;;;;;0.60;0.60;;;;;;;;;;8418579;28;20015;-72
2022/08/01 12:56:30;;;;;;;0.85;0.70;;;;;;;;;;8421072;27;20055;-71
2022/08/01 13:00:31;;;;;;;0.57;0.57;;;;;;;;;;8419367;28;20070;-72
2022/08/01 13:04:32;;;;;;;9.05;0.90;;;;;;;;;;8418847;28;20028;-72
2022/08/01 13:08:33;;;;;;;2.35;0.70;;;;;;;;;;8419306;28;20398;-72
2022/08/01 13:12:34;;;;;;;3.63;0.90;;;;;;;;;;8419706;28;20094;-71
2022/08/01 13:16:45;;;;;;;1.60;0.90;;;;;;;;;;8419369;28;20070;-72
2022/08/01 13:20:45;;;;;;;2.77;0.83;;;;;;;;;;8417488;28;20117;-72
2022/08/01 13:24:45;;;;;;;1.02;0.95;;;;;;;;;;8419198;28;20093;-72
2022/08/01 13:28:46;;;;;;;0.90;0.65;;;;;;;;;;8417255;28;20027;-72
2022/08/01 13:32:58;;;;;;;1.25;0.65;;;;;;;;;;8418446;27;20433;-72
2022/08/01 13:37:01;;;;;;;0.80;0.65;;;;;;;;;;8418105;28;20456;-72
2022/08/01 13:41:01;;;;;;;2.30;0.60;;;;;;;;;;8418864;27;20038;-72
2022/08/01 13:45:02;;;;;;;3.53;0.70;;;;;;;;;;8417817;27;20932;-71
2022/08/01 13:49:02;;;;;;;2.80;0.60;;;;;;;;;;8416119;27;20700;-71
2022/08/01 13:53:02;;;;;;;0.90;0.60;;;;;;;;;;8418473;28;20215;-72
2022/08/01 13:57:03;;;;;;;2.67;0.63;;;;;;;;;;8418671;28;20028;-71
2022/08/01 14:01:03;;;;;;;1.38;0.60;;;;;;;;;;8402312;28;20046;-72
2022/08/01 14:05:03;;;;;;;0.60;0.60;;;;;;;;;;8418322;28;20786;-71
2022/08/01 14:09:04;;;;;;;2.22;0.68;;;;;;;;;;8415338;28;20059;-71
2022/08/01 14:13:04;;;;;;;2.17;0.70;;;;;;;;;;8415881;28;20042;-72
2022/08/01 14:17:04;;;;;;;2.38;0.60;;;;;;;;;;8418382;28;20032;-72
2022/08/01 14:21:04;;;;;;;0.60;0.60;;;;;;;;;;8415325;28;20032;-71
2022/08/01 14:25:05;;;;;;;0.57;0.57;;;;;;;;;;8418045;27;20020;-72
2022/08/01 14:29:05;;;;;;;0.50;0.50;;;;;;;;;;8417682;28;20032;-71
2022/08/01 14:33:05;;;;;;;0.70;0.70;;;;;;;;;;8415348;28;20082;-72
2022/08/01 14:37:05;;;;;;;2.13;0.70;;;;;;;;;;8418246;28;20780;-72
2022/08/01 14:41:06;;;;;;;1.73;0.63;;;;;;;;;;8416709;28;20555;-71
2022/08/01 14:45:08;;;;;;;1.13;0.73;;;;;;;;;;8415649;28;20020;-72
2022/08/01 14:49:08;;;;;;;0.60;0.60;;;;;;;;;;8416736;28;20099;-72
2022/08/01 14:53:09;;;;;;;0.88;0.60;;;;;;;;;;8416703;28;20430;-72
2022/08/01 14:57:09;;;;;;;1.50;0.60;;;;;;;;;;8415936;28;20031;-71
2022/08/01 15:01:09;;;;;;;2.42;0.60;;;;;;;;;;8415866;28;20342;-72
2022/08/01 15:05:09;;;;;;;2.75;0.63;;;;;;;;;;8393719;28;20035;-72
2022/08/01 15:09:10;;;;;;;1.33;0.77;;;;;;;;;;8409389;28;20023;-72
2022/08/01 15:13:10;;;;;;;2.70;0.60;;;;;;;;;;8409596;28;20820;-72
2022/08/01 15:17:10;;;;;;;1.02;0.63;;;;;;;;;;8408932;28;20433;-72
2022/08/01 15:21:10;;;;;;;0.50;0.50;;;;;;;;;;8409418;28;20031;-72
2022/08/01 15:25:10;;;;;;;0.60;0.60;;;;;;;;;;8411482;28;20015;-71
2022/08/01 15:29:13;;;;;;;1.50;0.70;;;;;;;;;;8389002;28;20532;-71
2022/08/01 15:33:13;;;;;;;;;;;;;;;;;;8409553;28;20043;-72
2022/08/01 15:37:14;;;;;;;0.73;0.60;;;;;;;;;;8409475;28;20067;-71
2022/08/01 15:41:14;;;;;;;1.30;0.60;;;;;;;;;;8410287;28;20043;-71
2022/08/01 15:45:18;;;;;;;1.10;0.50;;;;;;;;;;8409703;28;20169;-72
2022/08/01 15:49:19;;;;;;;0.82;0.60;;;;;;;;;;8409746;28;20460;-71
2022/08/01 15:53:20;;;;;;;0.85;0.70;;;;;;;;;;8411143;28;20023;-71
2022/08/01 15:57:20;;;;;;;0.77;0.50;;;;;;;;;;8409403;28;20118;-72
2022/08/01 16:01:20;;;;;;;0.55;0.50;;;;;;;;;;8408560;28;20043;-71
2022/08/01 16:05:21;;;;;;;3.13;0.60;;;;;;;;;;8410742;28;20023;-72
2022/08/01 16:09:21;;;;;;;1.57;0.60;;;;;;;;;;8395658;28;20068;-72
2022/08/01 16:13:21;;;;;;;0.50;0.50;;;;;;;;;;8417338;28;20114;-72
2022/08/01 16:17:21;;;;;;;1.10;0.57;;;;;;;;;;8416417;27;20579;-72
2022/08/01 16:21:23;;;;;;;0.85;0.55;;;;;;;;;;8416648;28;20058;-71
2022/08/01 16:25:23;;;;;;;2.97;0.60;;;;;;;;;;8421835;28;20024;-71
2022/08/01 16:29:29;;;;;;;5.80;0.65;;;;;;;;;;8420186;28;20027;-72
2022/08/01 16:33:30;;;;;;;0.55;0.50;;;;;;;;;;8418760;28;20344;-72
2022/08/01 16:37:30;;;;;;;2.60;0.57;;;;;;;;;;8421212;28;20115;-72
2022/08/01 16:41:30;;;;;;;5.18;0.70;;;;;;;;;;8420666;28;20843;-72
2022/08/01 16:45:30;;;;;;;6.15;0.80;;;;;;;;;;8420066;28;20058;-72
2022/08/01 16:49:30;;;;;;;1.73;0.70;;;;;;;;;;8419820;28;20106;-72
2022/08/01 16:53:30;;;;;;;4.20;0.60;;;;;;;;;;8419286;28;20071;-72
2022/08/01 16:57:35;;;;;;;0.80;0.80;;;;;;;;;;8418437;28;20035;-71
2022/08/01 17:01:35;;;;;;;1.92;1.08;;;;;;;;;;8417211;28;20040;-71
2022/08/01 17:05:36;;;;;;;1.48;1.15;;;;;;;;;;8417664;28;20034;-71
2022/08/01 17:09:37;;;;;;;2.00;1.10;;;;;;;;;;8419496;28;20027;-72
2022/08/01 17:13:37;;;;;;;3.40;1.48;;;;;;;;;;8418861;28;20039;-71
2022/08/01 17:17:37;;;;;;;5.55;1.75;;;;;;;;;;8417242;27;20659;-72
2022/08/01 17:21:37;;;;;;;1.60;1.50;;;;;;;;;;8397289;28;20061;-72
2022/08/01 17:25:37;;;;;;;4.15;1.50;;;;;;;;;;8416402;27;20273;-72
2022/08/01 17:29:38;;;;;;;1.58;1.40;;;;;;;;;;8418030;28;20567;-72
2022/08/01 17:33:40;;;;;;;1.58;1.48;;;;;;;;;;8413169;28;20032;-72
2022/08/01 17:37:40;;;;;;;3.83;1.70;;;;;;;;;;8419201;28;20084;-72
2022/08/01 17:41:40;;;;;;;3.00;1.90;;;;;;;;;;8416954;28;20030;-71
2022/08/01 17:45:42;;;;;;;1.80;1.70;;;;;;;;;;8409875;27;20073;-72
2022/08/01 17:49:42;;;;;;;4.15;1.70;;;;;;;;;;8417461;28;20038;-71
2022/08/01 17:53:42;;;;;;;3.20;1.80;;;;;;;;;;8415594;28;20020;-70
2022/08/01 17:57:42;;;;;;;2.10;1.83;;;;;;;;;;8417299;27;20118;-70
2022/08/01 18:01:43;;;;;;;6.38;2.00;;;;;;;;;;8415929;28;20047;-70
2022/08/01 18:05:43;;;;;;;2.67;1.73;;;;;;;;;;8397345;28;20085;-71
2022/08/01 18:09:44;;;;;;;7.03;2.10;;;;;;;;;;8417575;28;20020;-71
2022/08/01 18:13:44;;;;;;;4.18;2.03;;;;;;;;;;8415881;27;20084;-71
2022/08/01 18:17:45;;;;;;;2.05;1.83;;;;;;;;;;8414423;28;20032;-71
2022/08/01 18:21:46;;;;;;;1.80;1.70;;;;;;;;;;8396319;27;20964;-71
2022/08/01 18:25:46;;;;;;;2.00;1.80;;;;;;;;;;8415701;28;20036;-71
2022/08/01 18:29:46;;;;;;;1.80;1.70;;;;;;;;;;8414639;28;20065;-71
2022/08/01 18:33:47;;;;;;;1.83;1.73;;;;;;;;;;8391395;28;20070;-71
2022/08/01 18:37:48;;;;;;;1.95;1.70;;;;;;;;;;8387677;28;20253;-71
2022/08/01 18:41:48;;;;;;;2.38;1.77;;;;;;;;;;8414912;28;20031;-71
2022/08/01 18:45:48;;;;;;;2.15;1.95;;;;;;;;;;8414648;28;20134;-71
2022/08/01 18:49:48;;;;;;;1.70;1.60;;;;;;;;;;8414232;28;20034;-71
2022/08/01 18:53:51;;;;;;;5.18;1.80;;;;;;;;;;8414966;28;20023;-71
2022/08/01 18:57:51;;;;;;;1.63;1.53;;;;;;;;;;8414827;28;20103;-71
2022/08/01 19:01:51;;;;;;;1.58;1.45;;;;;;;;;;8394871;28;20526;-71
2022/08/01 19:05:51;;;;;;;1.80;1.50;;;;;;;;;;8415008;28;20034;-71
2022/08/01 19:09:52;;;;;;;1.73;1.63;;;;;;;;;;8414543;28;20023;-71
2022/08/01 19:13:53;;;;;;;2.27;1.40;;;;;;;;;;8394781;28;20096;-71
2022/08/01 19:17:53;;;;;;;1.60;1.50;;;;;;;;;;8412914;28;20505;-71
2022/08/01 19:21:53;;;;;;;2.80;1.40;;;;;;;;;;8414624;28;20051;-71
2022/08/01 19:25:54;;;;;;;1.50;1.40;;;;;;;;;;8414149;28;20024;-71
2022/08/01 19:29:55;;;;;;;2.08;1.60;;;;;;;;;;8414492;28;20044;-71
2022/08/01 19:33:56;;;;;;;1.80;1.70;;;;;;;;;;8413668;28;20067;-71
2022/08/01 19:37:56;;;;;;;1.90;1.50;;;;;;;;;;8416392;27;20120;-71
2022/08/01 19:41:58;;;;;;;1.80;1.70;;;;;;;;;;8413009;28;20099;-71
2022/08/01 19:45:58;;;;;;;3.35;1.75;;;;;;;;;;8414842;28;20051;-71
2022/08/01 19:49:59;;;;;;;3.67;1.67;;;;;;;;;;8415077;28;20771;-71
2022/08/01 19:54:02;;;;;;;3.47;1.70;;;;;;;;;;8413329;28;20054;-71
2022/08/01 19:58:02;;;;;;;4.50;1.70;;;;;;;;;;8411405;28;20023;-71
2022/08/01 20:02:03;;;;;;;2.08;1.88;;;;;;;;;;8413311;28;20842;-71
2022/08/01 20:06:04;;;;;;;4.10;1.80;;;;;;;;;;8415557;28;20015;-72
2022/08/01 20:10:04;;;;;;;2.10;1.90;;;;;;;;;;8414572;28;20027;-71
2022/08/01 20:14:04;;;;;;;1.90;1.80;;;;;;;;;;8413868;28;20035;-71
2022/08/01 20:18:06;;;;;;;2.42;1.90;;;;;;;;;;8412280;28;20496;-71
2022/08/01 20:22:06;;;;;;;1.98;1.70;;;;;;;;;;8414646;28;20012;-71
2022/08/01 20:26:07;;;;;;;2.92;1.85;;;;;;;;;;8414561;28;20077;-71
2022/08/01 20:30:08;;;;;;;3.05;1.70;;;;;;;;;;8411789;28;20031;-72
2022/08/01 20:34:08;;;;;;;1.90;1.80;;;;;;;;;;8413487;28;20028;-71
2022/08/01 20:38:09;;;;;;;2.25;1.90;;;;;;;;;;8414932;28;20024;-72
2022/08/01 20:42:09;;;;;;;2.58;2.05;;;;;;;;;;8414042;28;20111;-72
2022/08/01 20:46:10;;;;;;;2.08;1.88;;;;;;;;;;8413116;28;20071;-71
2022/08/01 20:54:29;;;;;;;2.53;2.10;;;;;;;;;;8414908;28;20066;-71
2022/08/01 20:58:41;;;;;;;2.08;1.88;;;;;;;;;;8419444;28;20023;-71
2022/08/01 21:02:50;;;;;;;2.03;1.80;;;;;;;;;;8419828;27;20497;-71
2022/08/01 21:06:56;;;;;;;3.45;2.20;;;;;;;;;;8418791;28;20016;-71
2022/08/01 21:10:57;;;;;;;3.72;2.38;;;;;;;;;;8420005;28;20515;-71
2022/08/01 21:15:00;;;;;;;2.72;2.25;;;;;;;;;;8419792;28;20035;-72
2022/08/01 21:19:02;;;;;;;2.38;2.17;;;;;;;;;;8418989;28;20031;-71
2022/08/01 21:23:13;;;;;;;2.47;2.28;;;;;;;;;;8419244;28;20081;-71
2022/08/01 21:27:15;;;;;;;2.80;2.20;;;;;;;;;;8419989;27;20015;-71
2022/08/01 21:31:19;;;;;;;2.30;2.10;;;;;;;;;;8417012;28;20043;-71
2022/08/01 21:35:21;;;;;;;2.45;2.20;;;;;;;;;;8418397;28;20764;-71
2022/08/01 21:39:22;;;;;;;2.55;2.35;;;;;;;;;;8418181;28;20011;-71
2022/08/01 21:43:22;;;;;;;2.25;1.92;;;;;;;;;;8415913;27;20590;-71
2022/08/01 21:47:23;;;;;;;3.17;1.97;;;;;;;;;;8419339;27;20335;-71
2022/08/01 21:51:35;;;;;;;3.03;2.13;;;;;;;;;;8417473;28;20126;-71
2022/08/01 21:55:38;;;;;;;2.15;2.00;;;;;;;;;;8418691;28;20027;-71
2022/08/01 21:59:59;;;;;;;3.53;2.13;;;;;;;;;;8417362;27;20027;-71
2022/08/01 22:04:00;;;;;;;2.42;2.28;;;;;;;;;;8417279;27;20105;-71
2022/08/01 22:08:02;;;;;;;4.15;2.00;;;;;;;;;;8415944;28;20131;-72
2022/08/01 22:12:04;;;;;;;2.45;2.03;;;;;;;;;;8417849;28;20884;-71
2022/08/01 22:16:04;;;;;;;2.38;2.17;;;;;;;;;;8417410;27;20452;-71
2022/08/01 22:20:05;;;;;;;4.60;2.20;;;;;;;;;;8418617;28;20023;-71
2022/08/01 22:24:06;;;;;;;2.13;1.92;;;;;;;;;;8418657;27;20015;-71
2022/08/01 22:28:07;;;;;;;2.90;2.15;;;;;;;;;;8417657;28;20029;-71
2022/08/01 22:32:07;;;;;;;3.47;2.10;;;;;;;;;;8417245;28;20035;-71
2022/08/01 22:36:08;;;;;;;3.20;2.30;;;;;;;;;;8417340;28;20089;-71
2022/08/01 22:40:09;;;;;;;3.25;2.00;;;;;;;;;;8416648;28;20774;-71
2022/08/01 22:44:11;;;;;;;2.33;2.13;;;;;;;;;;8417076;28;20821;-71
2022/08/01 22:48:24;;;;;;;2.67;2.20;;;;;;;;;;8416430;28;20027;-71
2022/08/01 22:52:25;;;;;;;;;;;;;;;;;;8418887;28;20016;-71
2022/08/01 22:56:26;;;;;;;2.35;2.10;;;;;;;;;;8418210;28;19935;-71
2022/08/01 23:00:27;;;;;;;2.25;2.05;;;;;;;;;;8415055;28;20059;-71
2022/08/01 23:04:33;;;;;;;3.15;2.33;;;;;;;;;;8417608;28;20080;-71
2022/08/01 23:08:34;;;;;;;3.03;2.00;;;;;;;;;;8416692;28;20029;-71
2022/08/01 23:12:35;;;;;;;2.22;2.03;;;;;;;;;;8415957;28;20426;-71
2022/08/01 23:16:35;;;;;;;3.78;2.17;;;;;;;;;;8414566;28;20036;-71
2022/08/01 23:20:36;;;;;;;3.73;1.90;;;;;;;;;;8412435;28;20058;-71
2022/08/01 23:24:36;;;;;;;4.13;2.20;;;;;;;;;;8414802;28;20313;-71
2022/08/01 23:28:38;;;;;;;2.20;2.00;;;;;;;;;;8414257;28;20285;-71
2022/08/01 23:32:38;;;;;;;3.00;1.98;;;;;;;;;;8413231;28;20607;-71
2022/08/01 23:36:38;;;;;;;3.03;2.00;;;;;;;;;;8414314;28;20074;-71
2022/08/01 23:40:38;;;;;;;3.13;1.90;;;;;;;;;;8414083;28;20020;-71
2022/08/01 23:44:38;;;;;;;3.35;1.85;;;;;;;;;;8413258;27;20208;-71
2022/08/01 23:48:39;;;;;;;2.15;1.98;;;;;;;;;;8413827;27;20036;-71
2022/08/01 23:52:39;;;;;;;2.45;1.70;;;;;;;;;;8413126;28;20030;-72
2022/08/01 23:56:39;;;;;;;2.17;1.97;;;;;;;;;;8414999;28;20023;-71
